sensor_id;sensor_type;location;lat;lon;timestamp;P1;durP1;ratioP1;P2;durP2;ratioP2
4365;SDS011;2196;47.422;9.656;2022-08-05T00:02:21;3.57;;;3.37;;
4365;SDS011;2196;47.422;9.656;2022-08-05T00:04:48;3.40;;;3.30;;
4365;SDS011;2196;47.422;9.656;2022-08-05T00:07:15;3.60;;;3.40;;
4365;SDS011;2196;47.422;9.656;2022-08-05T00:09:42;3.23;;;3.03;;
4365;SDS011;2196;47.422;9.656;2022-08-05T00:12:09;3.17;;;3.07;;
4365;SDS011;2196;47.422;9.656;2022-08-05T00:14:37;4.03;;;3.93;;
4365;SDS011;2196;47.422;9.656;2022-08-05T00:17:04;5.57;;;3.80;;
4365;SDS011;2196;47.422;9.656;2022-08-05T00:19:31;3.27;;;3.17;;
4365;SDS011;2196;47.422;9.656;2022-08-05T00:21:58;3.70;;;3.50;;
4365;SDS011;2196;47.422;9.656;2022-08-05T00:24:25;3.90;;;3.70;;
4365;SDS011;2196;47.422;9.656;2022-08-05T00:26:52;3.77;;;3.43;;
4365;SDS011;2196;47.422;9.656;2022-08-05T00:29:19;4.17;;;3.83;;
4365;SDS011;2196;47.422;9.656;2022-08-05T00:31:48;3.30;;;3.10;;
4365;SDS011;2196;47.422;9.656;2022-08-05T00:34:15;3.47;;;3.17;;
4365;SDS011;2196;47.422;9.656;2022-08-05T00:36:42;3.20;;;3.10;;
4365;SDS011;2196;47.422;9.656;2022-08-05T00:39:09;3.10;;;3.00;;
4365;SDS011;2196;47.422;9.656;2022-08-05T00:41:36;3.40;;;3.20;;
4365;SDS011;2196;47.422;9.656;2022-08-05T00:44:04;3.03;;;2.93;;
4365;SDS011;2196;47.422;9.656;2022-08-05T00:46:31;3.57;;;3.47;;
4365;SDS011;2196;47.422;9.656;2022-08-05T00:48:59;3.33;;;3.23;;
4365;SDS011;2196;47.422;9.656;2022-08-05T00:51:26;3.33;;;3.27;;
4365;SDS011;2196;47.422;9.656;2022-08-05T00:53:53;3.77;;;3.47;;
4365;SDS011;2196;47.422;9.656;2022-08-05T00:56:20;3.27;;;3.17;;
4365;SDS011;2196;47.422;9.656;2022-08-05T00:58:47;3.47;;;3.37;;
4365;SDS011;2196;47.422;9.656;2022-08-05T01:01:14;3.10;;;3.00;;
4365;SDS011;2196;47.422;9.656;2022-08-05T01:03:42;3.37;;;3.20;;
4365;SDS011;2196;47.422;9.656;2022-08-05T01:06:10;3.40;;;3.23;;
4365;SDS011;2196;47.422;9.656;2022-08-05T01:08:37;3.77;;;3.63;;
4365;SDS011;2196;47.422;9.656;2022-08-05T01:11:06;2.93;;;2.83;;
4365;SDS011;2196;47.422;9.656;2022-08-05T01:13:38;3.90;;;3.70;;
4365;SDS011;2196;47.422;9.656;2022-08-05T01:16:13;2.80;;;2.70;;
4365;SDS011;2196;47.422;9.656;2022-08-05T01:18:46;3.20;;;3.10;;
4365;SDS011;2196;47.422;9.656;2022-08-05T01:21:29;4.10;;;3.80;;
4365;SDS011;2196;47.422;9.656;2022-08-05T01:24:13;3.33;;;3.23;;
4365;SDS011;2196;47.422;9.656;2022-08-05T01:27:01;3.23;;;3.13;;
4365;SDS011;2196;47.422;9.656;2022-08-05T01:29:35;3.57;;;3.40;;
4365;SDS011;2196;47.422;9.656;2022-08-05T01:32:06;3.07;;;3.03;;
4365;SDS011;2196;47.422;9.656;2022-08-05T01:34:38;3.03;;;2.93;;
4365;SDS011;2196;47.422;9.656;2022-08-05T01:37:15;3.10;;;3.00;;
4365;SDS011;2196;47.422;9.656;2022-08-05T01:39:45;2.93;;;2.83;;
4365;SDS011;2196;47.422;9.656;2022-08-05T01:42:15;3.23;;;3.03;;
4365;SDS011;2196;47.422;9.656;2022-08-05T01:44:46;3.10;;;2.90;;
4365;SDS011;2196;47.422;9.656;2022-08-05T01:47:16;2.97;;;2.77;;
4365;SDS011;2196;47.422;9.656;2022-08-05T01:49:45;2.97;;;2.83;;
4365;SDS011;2196;47.422;9.656;2022-08-05T01:52:15;2.73;;;2.73;;
4365;SDS011;2196;47.422;9.656;2022-08-05T01:54:45;3.20;;;3.00;;
4365;SDS011;2196;47.422;9.656;2022-08-05T01:57:16;5.03;;;3.77;;
4365;SDS011;2196;47.422;9.656;2022-08-05T01:59:50;3.43;;;3.33;;
4365;SDS011;2196;47.422;9.656;2022-08-05T02:02:19;3.33;;;3.23;;
4365;SDS011;2196;47.422;9.656;2022-08-05T02:04:48;3.90;;;3.60;;
4365;SDS011;2196;47.422;9.656;2022-08-05T02:07:16;3.27;;;3.10;;
4365;SDS011;2196;47.422;9.656;2022-08-05T02:09:43;3.60;;;3.50;;
4365;SDS011;2196;47.422;9.656;2022-08-05T02:12:11;3.67;;;3.57;;
4365;SDS011;2196;47.422;9.656;2022-08-05T02:14:46;5.23;;;4.00;;
4365;SDS011;2196;47.422;9.656;2022-08-05T02:17:22;3.53;;;3.33;;
4365;SDS011;2196;47.422;9.656;2022-08-05T02:19:56;3.80;;;3.63;;
4365;SDS011;2196;47.422;9.656;2022-08-05T02:22:27;3.40;;;3.30;;
4365;SDS011;2196;47.422;9.656;2022-08-05T02:24:57;3.87;;;3.57;;
4365;SDS011;2196;47.422;9.656;2022-08-05T02:27:29;4.00;;;3.67;;
4365;SDS011;2196;47.422;9.656;2022-08-05T02:30:01;3.80;;;3.70;;
4365;SDS011;2196;47.422;9.656;2022-08-05T02:32:30;3.67;;;3.47;;
4365;SDS011;2196;47.422;9.656;2022-08-05T02:35:01;3.37;;;3.27;;
4365;SDS011;2196;47.422;9.656;2022-08-05T02:37:30;2.93;;;2.83;;
4365;SDS011;2196;47.422;9.656;2022-08-05T02:40:00;3.33;;;3.23;;
4365;SDS011;2196;47.422;9.656;2022-08-05T02:42:28;3.73;;;3.53;;
4365;SDS011;2196;47.422;9.656;2022-08-05T02:44:55;3.77;;;3.60;;
4365;SDS011;2196;47.422;9.656;2022-08-05T02:47:23;5.07;;;3.63;;
4365;SDS011;2196;47.422;9.656;2022-08-05T02:49:53;4.10;;;3.93;;
4365;SDS011;2196;47.422;9.656;2022-08-05T02:52:21;3.97;;;3.67;;
4365;SDS011;2196;47.422;9.656;2022-08-05T02:54:49;4.03;;;3.70;;
4365;SDS011;2196;47.422;9.656;2022-08-05T02:57:18;3.43;;;3.13;;
4365;SDS011;2196;47.422;9.656;2022-08-05T02:59:47;4.60;;;4.40;;
4365;SDS011;2196;47.422;9.656;2022-08-05T03:02:18;3.43;;;3.23;;
4365;SDS011;2196;47.422;9.656;2022-08-05T03:04:47;4.00;;;3.30;;
4365;SDS011;2196;47.422;9.656;2022-08-05T03:07:18;7.87;;;3.90;;
4365;SDS011;2196;47.422;9.656;2022-08-05T03:09:46;3.70;;;3.50;;
4365;SDS011;2196;47.422;9.656;2022-08-05T03:12:27;3.60;;;3.50;;
4365;SDS011;2196;47.422;9.656;2022-08-05T03:14:55;4.80;;;4.40;;
4365;SDS011;2196;47.422;9.656;2022-08-05T03:17:21;3.90;;;3.80;;
4365;SDS011;2196;47.422;9.656;2022-08-05T03:19:48;3.90;;;3.80;;
4365;SDS011;2196;47.422;9.656;2022-08-05T03:22:15;3.20;;;3.10;;
4365;SDS011;2196;47.422;9.656;2022-08-05T03:24:45;3.63;;;3.53;;
4365;SDS011;2196;47.422;9.656;2022-08-05T03:27:13;4.00;;;3.90;;
4365;SDS011;2196;47.422;9.656;2022-08-05T03:29:41;3.80;;;3.50;;
4365;SDS011;2196;47.422;9.656;2022-08-05T03:32:09;4.13;;;4.03;;
4365;SDS011;2196;47.422;9.656;2022-08-05T03:34:36;3.90;;;3.80;;
4365;SDS011;2196;47.422;9.656;2022-08-05T03:37:04;4.50;;;4.20;;
4365;SDS011;2196;47.422;9.656;2022-08-05T03:39:32;3.90;;;3.70;;
4365;SDS011;2196;47.422;9.656;2022-08-05T03:41:59;4.13;;;3.97;;
4365;SDS011;2196;47.422;9.656;2022-08-05T03:44:26;4.93;;;4.53;;
4365;SDS011;2196;47.422;9.656;2022-08-05T03:46:53;4.77;;;4.47;;
4365;SDS011;2196;47.422;9.656;2022-08-05T03:49:20;4.57;;;4.30;;
4365;SDS011;2196;47.422;9.656;2022-08-05T03:51:49;4.37;;;4.17;;
4365;SDS011;2196;47.422;9.656;2022-08-05T03:54:22;5.63;;;5.07;;
4365;SDS011;2196;47.422;9.656;2022-08-05T03:56:58;4.70;;;4.50;;
4365;SDS011;2196;47.422;9.656;2022-08-05T03:59:27;3.87;;;3.77;;
4365;SDS011;2196;47.422;9.656;2022-08-05T04:01:56;4.47;;;4.27;;
4365;SDS011;2196;47.422;9.656;2022-08-05T04:04:25;4.77;;;4.63;;
4365;SDS011;2196;47.422;9.656;2022-08-05T04:06:54;3.50;;;3.40;;
4365;SDS011;2196;47.422;9.656;2022-08-05T04:09:21;3.73;;;3.63;;
4365;SDS011;2196;47.422;9.656;2022-08-05T04:11:49;4.10;;;4.00;;
4365;SDS011;2196;47.422;9.656;2022-08-05T04:14:18;3.53;;;3.43;;
4365;SDS011;2196;47.422;9.656;2022-08-05T04:16:45;3.97;;;3.73;;
4365;SDS011;2196;47.422;9.656;2022-08-05T04:19:12;3.87;;;3.60;;
4365;SDS011;2196;47.422;9.656;2022-08-05T04:21:40;4.00;;;3.90;;
4365;SDS011;2196;47.422;9.656;2022-08-05T04:24:07;3.53;;;3.43;;
4365;SDS011;2196;47.422;9.656;2022-08-05T04:26:34;2.80;;;2.70;;
4365;SDS011;2196;47.422;9.656;2022-08-05T04:29:01;4.10;;;3.80;;
4365;SDS011;2196;47.422;9.656;2022-08-05T04:31:30;4.00;;;3.80;;
4365;SDS011;2196;47.422;9.656;2022-08-05T04:33:57;3.50;;;3.40;;
4365;SDS011;2196;47.422;9.656;2022-08-05T04:36:24;4.37;;;4.00;;
4365;SDS011;2196;47.422;9.656;2022-08-05T04:38:51;4.63;;;4.43;;
4365;SDS011;2196;47.422;9.656;2022-08-05T04:41:19;4.33;;;4.13;;
4365;SDS011;2196;47.422;9.656;2022-08-05T04:43:46;3.43;;;3.23;;
4365;SDS011;2196;47.422;9.656;2022-08-05T04:46:13;3.30;;;3.20;;
4365;SDS011;2196;47.422;9.656;2022-08-05T04:48:44;3.00;;;2.80;;
4365;SDS011;2196;47.422;9.656;2022-08-05T04:51:12;2.73;;;2.63;;
4365;SDS011;2196;47.422;9.656;2022-08-05T04:53:39;3.30;;;3.20;;
4365;SDS011;2196;47.422;9.656;2022-08-05T04:56:06;3.90;;;3.10;;
4365;SDS011;2196;47.422;9.656;2022-08-05T04:58:33;3.67;;;3.37;;
4365;SDS011;2196;47.422;9.656;2022-08-05T05:01:00;4.07;;;3.83;;
4365;SDS011;2196;47.422;9.656;2022-08-05T05:03:27;3.87;;;3.67;;
4365;SDS011;2196;47.422;9.656;2022-08-05T05:05:56;2.50;;;2.50;;
4365;SDS011;2196;47.422;9.656;2022-08-05T05:08:23;3.90;;;3.70;;
4365;SDS011;2196;47.422;9.656;2022-08-05T05:10:50;3.10;;;2.93;;
4365;SDS011;2196;47.422;9.656;2022-08-05T05:13:17;3.70;;;2.80;;
4365;SDS011;2196;47.422;9.656;2022-08-05T05:15:44;2.90;;;2.80;;
4365;SDS011;2196;47.422;9.656;2022-08-05T05:18:12;2.83;;;2.73;;
4365;SDS011;2196;47.422;9.656;2022-08-05T05:20:41;2.63;;;2.43;;
4365;SDS011;2196;47.422;9.656;2022-08-05T05:23:11;2.90;;;2.70;;
4365;SDS011;2196;47.422;9.656;2022-08-05T05:25:39;2.87;;;2.83;;
4365;SDS011;2196;47.422;9.656;2022-08-05T05:28:06;3.40;;;3.10;;
4365;SDS011;2196;47.422;9.656;2022-08-05T05:30:33;2.83;;;2.70;;
4365;SDS011;2196;47.422;9.656;2022-08-05T05:33:02;4.73;;;2.70;;
4365;SDS011;2196;47.422;9.656;2022-08-05T05:35:30;2.73;;;2.63;;
4365;SDS011;2196;47.422;9.656;2022-08-05T05:37:58;2.73;;;2.60;;
4365;SDS011;2196;47.422;9.656;2022-08-05T05:40:28;3.20;;;3.10;;
4365;SDS011;2196;47.422;9.656;2022-08-05T05:42:56;2.87;;;2.67;;
4365;SDS011;2196;47.422;9.656;2022-08-05T05:45:23;2.47;;;2.37;;
4365;SDS011;2196;47.422;9.656;2022-08-05T05:47:50;2.50;;;2.50;;
4365;SDS011;2196;47.422;9.656;2022-08-05T05:50:18;2.33;;;2.23;;
4365;SDS011;2196;47.422;9.656;2022-08-05T05:52:46;2.93;;;2.93;;
4365;SDS011;2196;47.422;9.656;2022-08-05T05:55:14;2.30;;;2.30;;
4365;SDS011;2196;47.422;9.656;2022-08-05T05:57:45;4.20;;;3.03;;
4365;SDS011;2196;47.422;9.656;2022-08-05T06:00:13;2.50;;;2.50;;
4365;SDS011;2196;47.422;9.656;2022-08-05T06:02:41;2.20;;;2.17;;
4365;SDS011;2196;47.422;9.656;2022-08-05T06:05:10;2.88;;;2.72;;
4365;SDS011;2196;47.422;9.656;2022-08-05T06:07:38;3.30;;;3.13;;
4365;SDS011;2196;47.422;9.656;2022-08-05T06:10:06;6.05;;;3.25;;
4365;SDS011;2196;47.422;9.656;2022-08-05T06:12:34;3.73;;;3.50;;
4365;SDS011;2196;47.422;9.656;2022-08-05T06:15:06;3.40;;;3.30;;
4365;SDS011;2196;47.422;9.656;2022-08-05T06:17:35;3.57;;;3.37;;
4365;SDS011;2196;47.422;9.656;2022-08-05T06:20:03;3.10;;;3.00;;
4365;SDS011;2196;47.422;9.656;2022-08-05T06:22:32;3.40;;;2.80;;
4365;SDS011;2196;47.422;9.656;2022-08-05T06:25:00;2.67;;;2.63;;
4365;SDS011;2196;47.422;9.656;2022-08-05T06:27:27;3.07;;;2.80;;
4365;SDS011;2196;47.422;9.656;2022-08-05T06:29:54;3.20;;;3.13;;
4365;SDS011;2196;47.422;9.656;2022-08-05T06:32:23;2.25;;;2.25;;
4365;SDS011;2196;47.422;9.656;2022-08-05T06:34:50;2.67;;;2.50;;
4365;SDS011;2196;47.422;9.656;2022-08-05T06:37:18;2.60;;;2.50;;
4365;SDS011;2196;47.422;9.656;2022-08-05T06:39:46;3.30;;;3.10;;
4365;SDS011;2196;47.422;9.656;2022-08-05T06:42:13;3.20;;;3.00;;
4365;SDS011;2196;47.422;9.656;2022-08-05T06:44:40;2.93;;;2.83;;
4365;SDS011;2196;47.422;9.656;2022-08-05T06:47:08;4.18;;;3.38;;
4365;SDS011;2196;47.422;9.656;2022-08-05T06:49:36;3.30;;;3.05;;
4365;SDS011;2196;47.422;9.656;2022-08-05T06:52:03;2.38;;;2.28;;
4365;SDS011;2196;47.422;9.656;2022-08-05T06:54:31;2.88;;;2.78;;
4365;SDS011;2196;47.422;9.656;2022-08-05T06:56:58;3.20;;;3.03;;
4365;SDS011;2196;47.422;9.656;2022-08-05T06:59:25;2.87;;;2.73;;
4365;SDS011;2196;47.422;9.656;2022-08-05T07:01:52;2.42;;;2.33;;
4365;SDS011;2196;47.422;9.656;2022-08-05T07:04:19;4.13;;;3.20;;
4365;SDS011;2196;47.422;9.656;2022-08-05T07:06:51;3.60;;;3.40;;
4365;SDS011;2196;47.422;9.656;2022-08-05T07:09:18;3.00;;;2.90;;
4365;SDS011;2196;47.422;9.656;2022-08-05T07:11:45;2.90;;;2.87;;
4365;SDS011;2196;47.422;9.656;2022-08-05T07:14:12;3.17;;;3.07;;
4365;SDS011;2196;47.422;9.656;2022-08-05T07:16:56;2.77;;;2.67;;
4365;SDS011;2196;47.422;9.656;2022-08-05T07:19:27;3.43;;;3.33;;
4365;SDS011;2196;47.422;9.656;2022-08-05T07:21:59;2.85;;;2.70;;
4365;SDS011;2196;47.422;9.656;2022-08-05T07:24:29;2.17;;;2.17;;
4365;SDS011;2196;47.422;9.656;2022-08-05T07:26:56;2.50;;;2.40;;
4365;SDS011;2196;47.422;9.656;2022-08-05T07:29:23;3.30;;;3.20;;
4365;SDS011;2196;47.422;9.656;2022-08-05T07:31:50;3.72;;;3.63;;
4365;SDS011;2196;47.422;9.656;2022-08-05T07:34:17;4.22;;;3.42;;
4365;SDS011;2196;47.422;9.656;2022-08-05T07:36:45;2.63;;;2.38;;
4365;SDS011;2196;47.422;9.656;2022-08-05T07:39:16;2.70;;;2.60;;
4365;SDS011;2196;47.422;9.656;2022-08-05T07:41:43;2.55;;;2.42;;
4365;SDS011;2196;47.422;9.656;2022-08-05T07:44:10;2.58;;;2.47;;
4365;SDS011;2196;47.422;9.656;2022-08-05T07:46:38;2.38;;;2.30;;
4365;SDS011;2196;47.422;9.656;2022-08-05T07:49:05;3.88;;;2.80;;
4365;SDS011;2196;47.422;9.656;2022-08-05T07:51:32;3.35;;;3.03;;
4365;SDS011;2196;47.422;9.656;2022-08-05T07:54:00;3.33;;;2.83;;
4365;SDS011;2196;47.422;9.656;2022-08-05T07:56:28;6.53;;;2.85;;
4365;SDS011;2196;47.422;9.656;2022-08-05T07:58:55;3.08;;;2.90;;
4365;SDS011;2196;47.422;9.656;2022-08-05T08:01:22;2.67;;;2.47;;
4365;SDS011;2196;47.422;9.656;2022-08-05T08:03:51;3.28;;;3.08;;
4365;SDS011;2196;47.422;9.656;2022-08-05T08:06:18;3.00;;;2.90;;
4365;SDS011;2196;47.422;9.656;2022-08-05T08:08:45;2.88;;;2.78;;
4365;SDS011;2196;47.422;9.656;2022-08-05T08:11:12;2.72;;;2.72;;
4365;SDS011;2196;47.422;9.656;2022-08-05T08:13:41;3.25;;;2.95;;
4365;SDS011;2196;47.422;9.656;2022-08-05T08:16:11;3.05;;;2.90;;
4365;SDS011;2196;47.422;9.656;2022-08-05T08:18:38;3.00;;;2.78;;
4365;SDS011;2196;47.422;9.656;2022-08-05T08:21:05;4.80;;;2.92;;
4365;SDS011;2196;47.422;9.656;2022-08-05T08:23:32;3.60;;;3.40;;
4365;SDS011;2196;47.422;9.656;2022-08-05T08:25:59;3.97;;;3.30;;
4365;SDS011;2196;47.422;9.656;2022-08-05T08:28:26;3.33;;;2.78;;
4365;SDS011;2196;47.422;9.656;2022-08-05T08:30:55;2.88;;;2.78;;
4365;SDS011;2196;47.422;9.656;2022-08-05T08:33:21;3.40;;;3.30;;
4365;SDS011;2196;47.422;9.656;2022-08-05T08:35:48;4.07;;;3.28;;
4365;SDS011;2196;47.422;9.656;2022-08-05T08:38:15;4.28;;;4.03;;
4365;SDS011;2196;47.422;9.656;2022-08-05T08:40:42;2.83;;;2.72;;
4365;SDS011;2196;47.422;9.656;2022-08-05T08:43:10;3.38;;;3.15;;
4365;SDS011;2196;47.422;9.656;2022-08-05T08:45:38;2.92;;;2.90;;
4365;SDS011;2196;47.422;9.656;2022-08-05T08:48:07;3.00;;;2.78;;
4365;SDS011;2196;47.422;9.656;2022-08-05T08:50:38;2.88;;;2.78;;
4365;SDS011;2196;47.422;9.656;2022-08-05T08:53:07;2.75;;;2.65;;
4365;SDS011;2196;47.422;9.656;2022-08-05T08:55:37;3.58;;;3.35;;
4365;SDS011;2196;47.422;9.656;2022-08-05T08:58:05;3.13;;;2.92;;
4365;SDS011;2196;47.422;9.656;2022-08-05T09:00:32;3.47;;;3.30;;
4365;SDS011;2196;47.422;9.656;2022-08-05T09:02:59;3.45;;;2.90;;
4365;SDS011;2196;47.422;9.656;2022-08-05T09:05:32;3.72;;;3.42;;
4365;SDS011;2196;47.422;9.656;2022-08-05T09:07:59;3.53;;;3.33;;
4365;SDS011;2196;47.422;9.656;2022-08-05T09:10:25;2.80;;;2.65;;
4365;SDS011;2196;47.422;9.656;2022-08-05T09:12:53;3.35;;;3.25;;
4365;SDS011;2196;47.422;9.656;2022-08-05T09:15:20;3.63;;;3.33;;
4365;SDS011;2196;47.422;9.656;2022-08-05T09:17:48;3.42;;;3.33;;
4365;SDS011;2196;47.422;9.656;2022-08-05T09:20:15;3.15;;;3.15;;
4365;SDS011;2196;47.422;9.656;2022-08-05T09:25:31;3.28;;;3.25;;
4365;SDS011;2196;47.422;9.656;2022-08-05T09:28:08;3.13;;;2.92;;
4365;SDS011;2196;47.422;9.656;2022-08-05T09:30:43;3.33;;;2.70;;
4365;SDS011;2196;47.422;9.656;2022-08-05T09:33:17;3.63;;;3.42;;
4365;SDS011;2196;47.422;9.656;2022-08-05T09:35:51;3.17;;;2.97;;
4365;SDS011;2196;47.422;9.656;2022-08-05T09:38:22;3.35;;;3.15;;
4365;SDS011;2196;47.422;9.656;2022-08-05T09:40:49;3.25;;;3.05;;
4365;SDS011;2196;47.422;9.656;2022-08-05T09:43:24;3.60;;;3.40;;
4365;SDS011;2196;47.422;9.656;2022-08-05T09:45:53;3.47;;;3.20;;
4365;SDS011;2196;47.422;9.656;2022-08-05T09:48:20;3.38;;;3.20;;
4365;SDS011;2196;47.422;9.656;2022-08-05T09:50:51;3.97;;;3.67;;
4365;SDS011;2196;47.422;9.656;2022-08-05T09:53:21;2.80;;;2.70;;
4365;SDS011;2196;47.422;9.656;2022-08-05T09:55:52;3.63;;;3.42;;
4365;SDS011;2196;47.422;9.656;2022-08-05T09:58:20;4.43;;;3.47;;
4365;SDS011;2196;47.422;9.656;2022-08-05T10:00:51;3.05;;;2.88;;
4365;SDS011;2196;47.422;9.656;2022-08-05T10:03:23;3.38;;;3.13;;
4365;SDS011;2196;47.422;9.656;2022-08-05T10:06:03;3.92;;;3.65;;
4365;SDS011;2196;47.422;9.656;2022-08-05T10:08:34;5.00;;;3.28;;
4365;SDS011;2196;47.422;9.656;2022-08-05T10:11:03;3.75;;;3.65;;
4365;SDS011;2196;47.422;9.656;2022-08-05T10:13:38;3.40;;;3.30;;
4365;SDS011;2196;47.422;9.656;2022-08-05T10:16:06;3.53;;;3.33;;
4365;SDS011;2196;47.422;9.656;2022-08-05T10:18:52;2.95;;;2.75;;
4365;SDS011;2196;47.422;9.656;2022-08-05T10:21:20;2.90;;;2.80;;
4365;SDS011;2196;47.422;9.656;2022-08-05T10:23:48;3.95;;;3.72;;
4365;SDS011;2196;47.422;9.656;2022-08-05T10:26:17;3.42;;;3.33;;
4365;SDS011;2196;47.422;9.656;2022-08-05T10:28:46;3.20;;;3.10;;
4365;SDS011;2196;47.422;9.656;2022-08-05T10:31:16;6.60;;;3.85;;
4365;SDS011;2196;47.422;9.656;2022-08-05T10:33:44;3.33;;;3.13;;
4365;SDS011;2196;47.422;9.656;2022-08-05T10:36:11;3.42;;;3.28;;
4365;SDS011;2196;47.422;9.656;2022-08-05T10:38:39;4.82;;;4.00;;
4365;SDS011;2196;47.422;9.656;2022-08-05T10:41:12;3.97;;;3.30;;
4365;SDS011;2196;47.422;9.656;2022-08-05T10:43:46;3.28;;;3.17;;
4365;SDS011;2196;47.422;9.656;2022-08-05T10:46:19;4.18;;;4.03;;
4365;SDS011;2196;47.422;9.656;2022-08-05T10:48:48;3.50;;;3.05;;
4365;SDS011;2196;47.422;9.656;2022-08-05T10:51:20;3.50;;;3.15;;
4365;SDS011;2196;47.422;9.656;2022-08-05T10:53:51;3.65;;;3.45;;
4365;SDS011;2196;47.422;9.656;2022-08-05T10:56:22;3.83;;;3.60;;
4365;SDS011;2196;47.422;9.656;2022-08-05T10:59:04;4.05;;;3.53;;
4365;SDS011;2196;47.422;9.656;2022-08-05T11:01:32;3.88;;;3.78;;
4365;SDS011;2196;47.422;9.656;2022-08-05T11:04:02;4.35;;;4.20;;
4365;SDS011;2196;47.422;9.656;2022-08-05T11:06:32;3.90;;;3.63;;
4365;SDS011;2196;47.422;9.656;2022-08-05T11:11:48;4.32;;;4.20;;
4365;SDS011;2196;47.422;9.656;2022-08-05T11:14:22;3.90;;;3.45;;
4365;SDS011;2196;47.422;9.656;2022-08-05T11:19:56;4.38;;;4.20;;
4365;SDS011;2196;47.422;9.656;2022-08-05T11:22:42;3.60;;;3.40;;
4365;SDS011;2196;47.422;9.656;2022-08-05T11:25:25;3.88;;;3.58;;
4365;SDS011;2196;47.422;9.656;2022-08-05T11:27:55;3.45;;;3.35;;
4365;SDS011;2196;47.422;9.656;2022-08-05T11:30:22;3.72;;;3.45;;
4365;SDS011;2196;47.422;9.656;2022-08-05T11:32:49;4.32;;;4.03;;
4365;SDS011;2196;47.422;9.656;2022-08-05T11:38:20;4.60;;;4.20;;
4365;SDS011;2196;47.422;9.656;2022-08-05T11:41:20;3.65;;;3.55;;
4365;SDS011;2196;47.422;9.656;2022-08-05T11:43:55;3.50;;;3.40;;
4365;SDS011;2196;47.422;9.656;2022-08-05T11:46:24;4.00;;;3.90;;
4365;SDS011;2196;47.422;9.656;2022-08-05T11:48:51;4.80;;;4.22;;
4365;SDS011;2196;47.422;9.656;2022-08-05T11:51:18;5.03;;;4.28;;
4365;SDS011;2196;47.422;9.656;2022-08-05T11:53:45;4.78;;;4.57;;
4365;SDS011;2196;47.422;9.656;2022-08-05T11:56:17;3.50;;;3.33;;
4365;SDS011;2196;47.422;9.656;2022-08-05T11:58:45;3.70;;;3.55;;
4365;SDS011;2196;47.422;9.656;2022-08-05T12:01:17;3.95;;;3.75;;
4365;SDS011;2196;47.422;9.656;2022-08-05T12:03:45;4.05;;;3.75;;
4365;SDS011;2196;47.422;9.656;2022-08-05T12:06:17;4.00;;;3.72;;
4365;SDS011;2196;47.422;9.656;2022-08-05T12:08:46;4.93;;;3.72;;
4365;SDS011;2196;47.422;9.656;2022-08-05T12:11:16;3.95;;;3.85;;
4365;SDS011;2196;47.422;9.656;2022-08-05T12:13:52;3.58;;;3.40;;
4365;SDS011;2196;47.422;9.656;2022-08-05T12:16:20;4.10;;;4.00;;
4365;SDS011;2196;47.422;9.656;2022-08-05T12:18:48;3.88;;;3.65;;
4365;SDS011;2196;47.422;9.656;2022-08-05T12:21:16;4.40;;;4.07;;
4365;SDS011;2196;47.422;9.656;2022-08-05T12:23:50;4.47;;;4.07;;
4365;SDS011;2196;47.422;9.656;2022-08-05T12:26:20;4.25;;;3.80;;
4365;SDS011;2196;47.422;9.656;2022-08-05T12:28:47;4.68;;;4.20;;
4365;SDS011;2196;47.422;9.656;2022-08-05T12:31:14;4.38;;;3.97;;
4365;SDS011;2196;47.422;9.656;2022-08-05T12:33:42;4.18;;;3.88;;
4365;SDS011;2196;47.422;9.656;2022-08-05T12:36:10;3.88;;;3.67;;
4365;SDS011;2196;47.422;9.656;2022-08-05T12:38:37;3.83;;;3.55;;
4365;SDS011;2196;47.422;9.656;2022-08-05T12:41:08;3.85;;;3.65;;
4365;SDS011;2196;47.422;9.656;2022-08-05T12:43:48;4.82;;;3.80;;
4365;SDS011;2196;47.422;9.656;2022-08-05T12:46:21;3.63;;;3.42;;
4365;SDS011;2196;47.422;9.656;2022-08-05T12:48:58;4.00;;;3.63;;
4365;SDS011;2196;47.422;9.656;2022-08-05T12:51:26;4.10;;;3.90;;
4365;SDS011;2196;47.422;9.656;2022-08-05T12:53:58;13.32;;;5.53;;
4365;SDS011;2196;47.422;9.656;2022-08-05T12:56:27;9.23;;;5.15;;
4365;SDS011;2196;47.422;9.656;2022-08-05T12:59:12;4.25;;;4.05;;
4365;SDS011;2196;47.422;9.656;2022-08-05T13:01:41;3.90;;;3.70;;
4365;SDS011;2196;47.422;9.656;2022-08-05T13:04:09;3.78;;;3.58;;
4365;SDS011;2196;47.422;9.656;2022-08-05T13:06:37;3.95;;;3.85;;
4365;SDS011;2196;47.422;9.656;2022-08-05T13:09:08;4.55;;;3.90;;
4365;SDS011;2196;47.422;9.656;2022-08-05T13:11:37;4.78;;;3.70;;
4365;SDS011;2196;47.422;9.656;2022-08-05T13:14:15;8.18;;;5.38;;
4365;SDS011;2196;47.422;9.656;2022-08-05T13:16:48;19.38;;;6.22;;
4365;SDS011;2196;47.422;9.656;2022-08-05T13:19:20;5.97;;;3.90;;
4365;SDS011;2196;47.422;9.656;2022-08-05T13:21:48;5.88;;;3.67;;
4365;SDS011;2196;47.422;9.656;2022-08-05T13:24:16;3.47;;;3.17;;
4365;SDS011;2196;47.422;9.656;2022-08-05T13:26:44;3.88;;;3.58;;
4365;SDS011;2196;47.422;9.656;2022-08-05T13:29:12;5.30;;;3.75;;
4365;SDS011;2196;47.422;9.656;2022-08-05T13:31:41;4.05;;;3.75;;
4365;SDS011;2196;47.422;9.656;2022-08-05T13:34:09;4.50;;;3.30;;
4365;SDS011;2196;47.422;9.656;2022-08-05T13:36:36;3.28;;;3.17;;
4365;SDS011;2196;47.422;9.656;2022-08-05T13:39:04;3.13;;;3.13;;
4365;SDS011;2196;47.422;9.656;2022-08-05T13:41:32;3.85;;;3.75;;
4365;SDS011;2196;47.422;9.656;2022-08-05T13:44:00;3.28;;;3.17;;
4365;SDS011;2196;47.422;9.656;2022-08-05T13:46:28;3.42;;;3.30;;
4365;SDS011;2196;47.422;9.656;2022-08-05T13:48:55;3.13;;;2.92;;
4365;SDS011;2196;47.422;9.656;2022-08-05T13:51:25;3.85;;;3.75;;
4365;SDS011;2196;47.422;9.656;2022-08-05T13:53:54;4.03;;;3.72;;
4365;SDS011;2196;47.422;9.656;2022-08-05T13:56:21;3.47;;;3.30;;
4365;SDS011;2196;47.422;9.656;2022-08-05T13:58:48;4.40;;;4.20;;
4365;SDS011;2196;47.422;9.656;2022-08-05T14:01:18;3.45;;;3.33;;
4365;SDS011;2196;47.422;9.656;2022-08-05T14:03:46;4.07;;;3.88;;
4365;SDS011;2196;47.422;9.656;2022-08-05T14:06:34;4.35;;;4.00;;
4365;SDS011;2196;47.422;9.656;2022-08-05T14:09:01;4.55;;;4.15;;
4365;SDS011;2196;47.422;9.656;2022-08-05T14:11:29;4.03;;;3.92;;
4365;SDS011;2196;47.422;9.656;2022-08-05T14:13:56;4.03;;;3.72;;
4365;SDS011;2196;47.422;9.656;2022-08-05T14:16:23;4.20;;;3.92;;
4365;SDS011;2196;47.422;9.656;2022-08-05T14:18:51;3.75;;;3.65;;
4365;SDS011;2196;47.422;9.656;2022-08-05T14:21:18;3.85;;;3.72;;
4365;SDS011;2196;47.422;9.656;2022-08-05T14:23:46;4.25;;;4.00;;
4365;SDS011;2196;47.422;9.656;2022-08-05T14:26:13;3.42;;;3.42;;
4365;SDS011;2196;47.422;9.656;2022-08-05T14:28:40;3.83;;;3.63;;
4365;SDS011;2196;47.422;9.656;2022-08-05T14:31:07;4.38;;;4.10;;
4365;SDS011;2196;47.422;9.656;2022-08-05T14:33:35;4.22;;;4.10;;
4365;SDS011;2196;47.422;9.656;2022-08-05T14:36:03;4.47;;;4.28;;
4365;SDS011;2196;47.422;9.656;2022-08-05T14:38:32;4.47;;;4.25;;
4365;SDS011;2196;47.422;9.656;2022-08-05T14:40:59;3.28;;;3.17;;
4365;SDS011;2196;47.422;9.656;2022-08-05T14:43:27;3.72;;;3.63;;
4365;SDS011;2196;47.422;9.656;2022-08-05T14:45:54;3.95;;;3.85;;
4365;SDS011;2196;47.422;9.656;2022-08-05T14:48:21;4.55;;;3.85;;
4365;SDS011;2196;47.422;9.656;2022-08-05T14:50:47;3.75;;;3.55;;
4365;SDS011;2196;47.422;9.656;2022-08-05T14:53:16;4.00;;;3.80;;
4365;SDS011;2196;47.422;9.656;2022-08-05T14:55:43;3.78;;;3.58;;
4365;SDS011;2196;47.422;9.656;2022-08-05T14:58:10;4.30;;;4.10;;
4365;SDS011;2196;47.422;9.656;2022-08-05T15:00:38;3.78;;;3.45;;
4365;SDS011;2196;47.422;9.656;2022-08-05T15:03:05;3.63;;;3.53;;
4365;SDS011;2196;47.422;9.656;2022-08-05T15:05:32;4.25;;;3.97;;
4365;SDS011;2196;47.422;9.656;2022-08-05T15:08:00;3.63;;;3.42;;
4365;SDS011;2196;47.422;9.656;2022-08-05T15:10:28;3.78;;;3.30;;
4365;SDS011;2196;47.422;9.656;2022-08-05T15:12:55;4.38;;;4.07;;
4365;SDS011;2196;47.422;9.656;2022-08-05T15:15:24;4.68;;;4.28;;
4365;SDS011;2196;47.422;9.656;2022-08-05T15:17:51;4.40;;;4.03;;
4365;SDS011;2196;47.422;9.656;2022-08-05T15:20:18;3.15;;;3.05;;
4365;SDS011;2196;47.422;9.656;2022-08-05T15:22:46;3.55;;;3.50;;
4365;SDS011;2196;47.422;9.656;2022-08-05T15:25:13;3.60;;;3.30;;
4365;SDS011;2196;47.422;9.656;2022-08-05T15:27:42;4.57;;;3.72;;
4365;SDS011;2196;47.422;9.656;2022-08-05T15:30:09;3.45;;;3.35;;
